Time;durP1;ratioP1;P1;durP2;ratioP2;P2;SDS_P1;SDS_P2;PMS_P1;PMS_P2;Temp;Humidity;BMP_temperature;BMP_pressure;BME280_temperature;BME280_humidity;BME280_pressure;Samples;Min_cycle;Max_cycle;Signal;HPM_P1;HPM_P2
2022/08/08 00:01:43;;;;;;;3.53;2.03;;;17.30;63.50;;;;;;5011948;28;20046;-70
2022/08/08 00:04:17;;;;;;;3.65;2.45;;;17.20;64.20;;;;;;4994338;28;20539;-70
2022/08/08 00:07:07;;;;;;;3.70;2.10;;;17.10;64.70;;;;;;5007324;28;20352;-70
2022/08/08 00:09:39;;;;;;;3.08;1.98;;;17.10;64.20;;;;;;5055942;28;20054;-70
2022/08/08 00:12:07;;;;;;;4.97;2.30;;;17.10;64.10;;;;;;5019344;28;20046;-70
2022/08/08 00:14:54;;;;;;;3.88;2.20;;;17.10;64.60;;;;;;5024955;28;20041;-70
2022/08/08 00:17:40;;;;;;;4.35;2.20;;;17.20;64.40;;;;;;5005311;28;20041;-70
2022/08/08 00:20:07;;;;;;;3.65;2.05;;;17.10;64.50;;;;;;5009315;28;20451;-70
2022/08/08 00:22:40;;;;;;;3.70;2.58;;;17.00;64.60;;;;;;5001524;28;20041;-70
2022/08/08 00:25:08;;;;;;;4.75;2.35;;;16.90;65.20;;;;;;5039481;28;20046;-70
2022/08/08 00:27:34;;;;;;;4.38;2.63;;;16.90;66.10;;;;;;5032185;28;20740;-70
2022/08/08 00:30:04;;;;;;;5.07;2.30;;;16.80;66.40;;;;;;5038983;28;20931;-70
2022/08/08 00:32:35;;;;;;;4.53;2.42;;;16.90;66.20;;;;;;5013287;28;20805;-70
2022/08/08 00:35:13;;;;;;;5.32;2.70;;;17.10;65.60;;;;;;5036309;28;20152;-69
2022/08/08 00:38:00;;;;;;;6.30;2.28;;;17.10;65.40;;;;;;5004040;28;20546;-70
2022/08/08 00:40:29;;;;;;;4.88;2.67;;;17.10;65.50;;;;;;5010530;28;20119;-71
2022/08/08 00:43:16;;;;;;;3.50;2.60;;;17.10;65.40;;;;;;5015564;28;20055;-70
2022/08/08 00:46:21;;;;;;;6.55;2.60;;;17.00;65.90;;;;;;5010132;28;20064;-69
2022/08/08 00:49:00;;;;;;;6.25;2.75;;;17.00;66.10;;;;;;5012144;28;20042;-70
2022/08/08 00:51:44;;;;;;;5.60;3.00;;;16.90;66.70;;;;;;5014742;28;20064;-70
2022/08/08 00:54:43;;;;;;;5.07;2.60;;;16.80;67.20;;;;;;5009932;28;20057;-69
2022/08/08 00:57:14;;;;;;;3.60;2.53;;;16.70;67.70;;;;;;5008557;28;20041;-70
2022/08/08 00:59:52;;;;;;;4.00;2.67;;;16.50;69.10;;;;;;5015856;28;20123;-70
2022/08/08 01:02:27;;;;;;;3.88;2.47;;;16.50;69.00;;;;;;5010346;28;20392;-71
2022/08/08 01:05:08;;;;;;;4.50;2.40;;;16.30;71.40;;;;;;5043066;28;20052;-71
2022/08/08 01:07:39;;;;;;;4.45;2.25;;;16.20;70.70;;;;;;5015006;28;20454;-71
2022/08/08 01:10:14;;;;;;;3.72;2.58;;;16.10;70.40;;;;;;5015996;28;20049;-71
2022/08/08 01:12:51;;;;;;;6.22;2.38;;;16.30;69.90;;;;;;5034755;28;20159;-69
2022/08/08 01:15:29;;;;;;;7.53;2.75;;;16.20;69.60;;;;;;5008226;28;20077;-70
2022/08/08 01:18:19;;;;;;;4.22;2.25;;;16.30;69.30;;;;;;5008758;28;20038;-70
2022/08/08 01:21:06;;;;;;;6.80;2.30;;;16.20;69.60;;;;;;4995234;28;20077;-70
2022/08/08 01:24:09;;;;;;;5.65;2.40;;;16.20;69.50;;;;;;5016866;28;20168;-70
2022/08/08 01:26:47;;;;;;;5.63;2.70;;;16.10;70.10;;;;;;5010175;28;20054;-70
2022/08/08 01:29:24;;;;;;;4.28;2.25;;;16.00;70.50;;;;;;5015966;28;20182;-70
2022/08/08 01:32:08;;;;;;;3.17;2.13;;;16.00;70.00;;;;;;5012543;28;20069;-70
2022/08/08 01:34:58;;;;;;;5.03;2.15;;;15.90;70.80;;;;;;5014793;28;20652;-70
2022/08/08 01:37:30;;;;;;;5.88;2.35;;;15.90;71.30;;;;;;4992271;28;20439;-70
2022/08/08 01:39:59;;;;;;;4.13;2.40;;;15.80;71.40;;;;;;5012074;28;20057;-70
2022/08/08 01:42:29;;;;;;;;;;;15.80;71.50;;;;;;5049107;28;20151;-70
2022/08/08 01:45:19;;;;;;;3.45;2.30;;;15.70;71.30;;;;;;5059780;28;19924;-71
2022/08/08 01:48:00;;;;;;;5.15;2.30;;;15.80;70.80;;;;;;5039236;28;20562;-71
2022/08/08 01:50:51;;;;;;;5.15;2.60;;;15.80;70.20;;;;;;5015829;28;20164;-71
2022/08/08 01:53:41;;;;;;;4.63;2.58;;;15.70;71.70;;;;;;5007496;28;20077;-71
2022/08/08 01:56:22;;;;;;;5.07;2.47;;;15.50;71.30;;;;;;5011899;28;20037;-71
2022/08/08 01:59:18;;;;;;;4.03;2.20;;;15.40;71.40;;;;;;5025968;28;20048;-71
2022/08/08 02:02:03;;;;;;;4.05;2.22;;;15.40;72.10;;;;;;5009459;28;20495;-71
2022/08/08 02:04:57;;;;;;;4.78;2.40;;;15.30;72.40;;;;;;5013803;28;20062;-71
2022/08/08 02:07:55;;;;;;;3.22;1.92;;;15.40;72.10;;;;;;5008277;28;20084;-70
2022/08/08 02:10:53;;;;;;;5.57;2.40;;;15.40;72.10;;;;;;5009767;28;20655;-70
2022/08/08 02:13:47;;;;;;;8.95;2.70;;;15.50;72.60;;;;;;5012492;28;20834;-71
2022/08/08 02:16:26;;;;;;;6.63;2.40;;;15.50;73.00;;;;;;5039636;28;20045;-71
2022/08/08 02:19:20;;;;;;;4.38;2.63;;;15.60;72.20;;;;;;5008763;28;20065;-69
2022/08/08 02:25:31;;;;;;;4.65;2.88;;;15.60;72.60;;;;;;5048850;28;20045;-71
2022/08/08 02:28:02;;;;;;;5.28;2.85;;;15.50;72.20;;;;;;4998965;28;20790;-70
2022/08/08 02:30:54;;;;;;;4.53;2.47;;;15.50;72.20;;;;;;5009336;28;20542;-70
2022/08/08 02:33:40;;;;;;;4.35;3.13;;;15.50;72.60;;;;;;5021073;28;20045;-70
2022/08/08 02:36:35;;;;;;;4.40;2.67;;;15.60;72.20;;;;;;5012969;28;20069;-71
2022/08/08 02:39:03;;;;;;;4.55;2.88;;;15.60;72.20;;;;;;5013740;28;20049;-70
2022/08/08 02:42:07;;;;;;;5.47;2.83;;;15.60;72.10;;;;;;5019946;28;20790;-70
2022/08/08 02:45:12;;;;;;;8.18;2.83;;;15.40;72.50;;;;;;5009490;28;20528;-71
2022/08/08 02:48:15;;;;;;;6.78;2.90;;;15.50;72.60;;;;;;5009505;28;20056;-70
2022/08/08 02:50:49;;;;;;;5.85;3.05;;;15.50;71.70;;;;;;5009196;28;20057;-70
2022/08/08 02:53:27;;;;;;;6.20;3.00;;;15.30;72.80;;;;;;5010795;28;20056;-70
2022/08/08 02:56:20;;;;;;;5.03;2.90;;;15.30;72.80;;;;;;5010699;28;20116;-70
2022/08/08 02:59:20;;;;;;;5.05;2.90;;;15.30;73.00;;;;;;5037941;28;20037;-71
2022/08/08 03:02:15;;;;;;;6.07;3.05;;;15.30;72.70;;;;;;5008645;28;20444;-71
2022/08/08 03:05:12;;;;;;;3.72;2.55;;;15.20;73.40;;;;;;5000967;28;20049;-71
2022/08/08 03:08:23;;;;;;;7.57;3.17;;;15.00;73.80;;;;;;4998080;28;20059;-70
2022/08/08 03:11:23;;;;;;;6.15;3.00;;;15.10;72.90;;;;;;5015229;28;20050;-70
2022/08/08 03:14:28;;;;;;;5.72;3.10;;;15.20;73.50;;;;;;4998780;28;20211;-70
2022/08/08 03:17:06;;;;;;;5.97;2.90;;;15.20;73.20;;;;;;5010946;28;20072;-70
2022/08/08 03:19:56;;;;;;;4.75;3.08;;;15.20;72.50;;;;;;5009484;28;20140;-69
2022/08/08 03:22:22;;;;;;;4.72;2.97;;;15.20;73.10;;;;;;5011288;28;20050;-70
2022/08/08 03:24:50;;;;;;;8.60;3.42;;;15.20;72.80;;;;;;5055546;28;20666;-71
2022/08/08 03:27:25;;;;;;;6.00;3.40;;;15.20;72.40;;;;;;4978212;28;20129;-70
2022/08/08 03:30:06;;;;;;;8.10;3.53;;;15.20;72.60;;;;;;5001245;28;20050;-69
2022/08/08 03:35:17;;;;;;;5.47;3.10;;;15.10;72.70;;;;;;5010810;28;20046;-70
2022/08/08 03:37:44;;;;;;;6.97;2.90;;;15.00;73.10;;;;;;5017939;28;20568;-70
2022/08/08 03:40:10;;;;;;;6.90;3.08;;;15.00;72.40;;;;;;5025976;28;20078;-70
2022/08/08 03:42:37;;;;;;;5.45;2.83;;;14.90;73.00;;;;;;4978100;28;20095;-70
2022/08/08 03:45:21;;;;;;;6.47;2.97;;;14.90;72.70;;;;;;5000315;28;20081;-70
2022/08/08 03:47:57;;;;;;;6.88;2.70;;;14.90;72.90;;;;;;5046984;28;20080;-69
2022/08/08 03:50:24;;;;;;;5.80;3.20;;;14.90;72.40;;;;;;5011804;28;20164;-70
2022/08/08 03:52:50;;;;;;;7.72;2.85;;;14.90;73.10;;;;;;5000505;28;20117;-70
2022/08/08 03:55:17;;;;;;;5.30;2.78;;;14.80;72.90;;;;;;5014797;28;20042;-70
2022/08/08 03:57:51;;;;;;;6.10;3.00;;;14.70;73.00;;;;;;5006686;28;20169;-70
2022/08/08 04:00:17;;;;;;;5.95;2.70;;;14.60;73.30;;;;;;5007109;28;20076;-70
2022/08/08 04:02:52;;;;;;;4.80;2.72;;;14.60;73.30;;;;;;5014502;28;20779;-69
2022/08/08 04:05:17;;;;;;;5.43;2.90;;;14.50;73.20;;;;;;5014094;28;20506;-69
2022/08/08 04:07:43;;;;;;;8.23;3.08;;;14.40;73.80;;;;;;4993903;28;20049;-70
2022/08/08 04:10:09;;;;;;;7.53;3.08;;;14.40;73.90;;;;;;5010303;28;20056;-70
2022/08/08 04:12:35;;;;;;;5.90;2.70;;;14.30;74.60;;;;;;5014688;28;20041;-68
2022/08/08 04:15:02;;;;;;;5.93;2.80;;;14.40;74.40;;;;;;5013726;28;20129;-68
2022/08/08 04:17:28;;;;;;;4.22;2.85;;;14.40;74.30;;;;;;5038733;28;20051;-68
2022/08/08 04:19:55;;;;;;;5.25;2.78;;;14.50;74.40;;;;;;4997246;28;20037;-69
2022/08/08 04:22:21;;;;;;;3.67;2.70;;;14.40;74.50;;;;;;5041805;28;20514;-68
2022/08/08 04:24:47;;;;;;;4.65;2.83;;;14.40;74.30;;;;;;5011262;28;20044;-68
2022/08/08 04:27:13;;;;;;;11.52;4.15;;;14.50;73.70;;;;;;5000287;28;20534;-65
2022/08/08 04:29:39;;;;;;;4.60;2.88;;;14.50;73.70;;;;;;5015189;28;20144;-64
2022/08/08 04:32:05;;;;;;;3.65;2.67;;;14.40;74.50;;;;;;5016272;28;20099;-64
2022/08/08 04:34:31;;;;;;;5.47;2.92;;;14.40;74.70;;;;;;5010608;28;20440;-64
2022/08/08 04:36:57;;;;;;;5.70;2.92;;;14.50;74.00;;;;;;4990797;28;20077;-65
2022/08/08 04:39:23;;;;;;;5.72;2.90;;;14.40;74.70;;;;;;5017013;28;20053;-64
2022/08/08 04:41:49;;;;;;;7.15;3.40;;;14.40;74.70;;;;;;5001804;28;20066;-64
2022/08/08 04:44:15;;;;;;;3.95;2.60;;;14.40;73.60;;;;;;5039418;28;20049;-64
2022/08/08 04:46:41;;;;;;;5.43;2.92;;;14.40;74.70;;;;;;5018000;28;20052;-65
2022/08/08 04:49:07;;;;;;;7.45;3.63;;;14.40;73.90;;;;;;5014877;28;20049;-64
2022/08/08 04:51:32;;;;;;;5.20;3.05;;;14.40;73.90;;;;;;5010272;28;20133;-64
2022/08/08 04:53:58;;;;;;;7.30;2.90;;;14.40;74.30;;;;;;4997779;28;20046;-64
2022/08/08 04:56:24;;;;;;;7.20;3.65;;;14.50;74.20;;;;;;5011586;28;20060;-64
2022/08/08 04:58:50;;;;;;;9.68;3.72;;;14.40;74.30;;;;;;5006078;28;20055;-64
2022/08/08 05:01:15;;;;;;;6.65;3.05;;;14.50;73.70;;;;;;5015763;28;20107;-64
2022/08/08 05:03:41;;;;;;;7.63;3.65;;;14.50;73.40;;;;;;4993420;28;20069;-65
2022/08/08 05:06:07;;;;;;;5.07;3.40;;;14.50;74.50;;;;;;5009847;28;20352;-64
2022/08/08 05:08:33;;;;;;;17.10;4.13;;;14.50;74.60;;;;;;5009960;28;20045;-64
2022/08/08 05:10:58;;;;;;;7.68;3.85;;;14.50;74.10;;;;;;4992906;28;20062;-64
2022/08/08 05:13:24;;;;;;;7.45;3.90;;;14.60;74.30;;;;;;5036643;28;20041;-65
2022/08/08 05:15:50;;;;;;;5.00;3.65;;;14.70;74.10;;;;;;5020805;28;20091;-66
2022/08/08 05:18:16;;;;;;;7.30;3.40;;;14.70;73.90;;;;;;5011923;28;20125;-65
2022/08/08 05:20:41;;;;;;;9.27;4.07;;;14.70;74.10;;;;;;5009756;28;20392;-63
2022/08/08 05:23:07;;;;;;;5.68;3.53;;;14.60;74.90;;;;;;5009362;28;20156;-65
2022/08/08 05:25:33;;;;;;;9.13;3.58;;;14.60;75.90;;;;;;5017830;28;20050;-65
2022/08/08 05:27:59;;;;;;;7.25;3.50;;;14.60;76.60;;;;;;5018267;28;20057;-64
2022/08/08 05:30:25;;;;;;;5.15;3.50;;;14.60;76.30;;;;;;5018031;28;20507;-64
2022/08/08 05:32:52;;;;;;;5.97;3.13;;;14.70;77.40;;;;;;5031602;28;20037;-65
2022/08/08 05:35:20;;;;;;;5.78;3.20;;;14.80;77.20;;;;;;4998978;28;20634;-63
2022/08/08 05:37:58;;;;;;;7.05;3.30;;;14.90;77.70;;;;;;5008988;28;20141;-64
2022/08/08 05:40:24;;;;;;;7.35;3.40;;;14.90;78.10;;;;;;5017713;28;20053;-64
2022/08/08 05:42:51;;;;;;;5.75;3.40;;;15.00;77.20;;;;;;5004753;28;20379;-64
2022/08/08 05:45:17;;;;;;;4.85;3.35;;;15.00;76.40;;;;;;4986426;28;20045;-64
2022/08/08 05:47:43;;;;;;;7.22;3.35;;;15.10;75.00;;;;;;5018843;28;20053;-64
2022/08/08 05:50:08;;;;;;;5.43;3.47;;;15.20;74.60;;;;;;5013929;28;20384;-64
2022/08/08 05:52:34;;;;;;;6.22;3.80;;;15.20;74.30;;;;;;5015104;28;20054;-64
2022/08/08 05:55:02;;;;;;;5.00;3.72;;;15.30;73.90;;;;;;5008662;28;20038;-66
2022/08/08 05:57:27;;;;;;;5.07;3.38;;;15.30;74.10;;;;;;5011536;28;20041;-66
2022/08/08 05:59:55;;;;;;;6.15;3.80;;;15.40;73.70;;;;;;5008888;28;20442;-66
2022/08/08 06:05:10;;;;;;;4.50;3.00;;;15.50;73.40;;;;;;5013370;28;20060;-64
2022/08/08 06:07:40;;;;;;;8.40;3.40;;;15.60;72.70;;;;;;5012539;28;20045;-63
2022/08/08 06:10:09;;;;;;;8.07;3.60;;;15.60;72.00;;;;;;4992965;28;20049;-63
2022/08/08 06:12:35;;;;;;;7.95;3.75;;;15.70;71.40;;;;;;5023601;28;20567;-64
2022/08/08 06:15:03;;;;;;;4.63;3.17;;;15.70;70.80;;;;;;5005668;28;20057;-63
2022/08/08 06:17:33;;;;;;;4.50;3.30;;;15.70;70.50;;;;;;5009245;28;20052;-64
2022/08/08 06:20:01;;;;;;;5.22;3.63;;;15.80;70.70;;;;;;5035510;28;20046;-64
2022/08/08 06:22:27;;;;;;;6.00;3.50;;;15.90;70.50;;;;;;5015148;28;20054;-64
2022/08/08 06:24:53;;;;;;;5.90;3.40;;;15.90;70.40;;;;;;5049840;28;20046;-66
2022/08/08 06:27:22;;;;;;;5.50;3.65;;;15.90;70.40;;;;;;5004837;28;20061;-65
2022/08/08 06:30:01;;;;;;;6.75;3.72;;;16.00;70.30;;;;;;5027325;28;20107;-64
2022/08/08 06:32:31;;;;;;;6.68;3.67;;;16.10;70.10;;;;;;4990478;28;20106;-65
2022/08/08 06:34:59;;;;;;;5.88;3.38;;;16.10;69.90;;;;;;4993790;28;20041;-65
2022/08/08 06:37:26;;;;;;;;;;;16.20;69.90;;;;;;5034925;28;20068;-64
2022/08/08 06:39:54;;;;;;;5.22;3.60;;;16.30;69.80;;;;;;5011382;28;19963;-66
2022/08/08 06:42:20;;;;;;;6.70;3.50;;;16.30;69.50;;;;;;5017040;28;20116;-66
2022/08/08 06:44:48;;;;;;;9.80;3.80;;;16.40;69.50;;;;;;5002744;28;20073;-63
2022/08/08 06:47:14;;;;;;;7.55;3.17;;;16.50;69.10;;;;;;5023690;28;20038;-63
2022/08/08 06:49:40;;;;;;;9.13;4.00;;;16.50;68.90;;;;;;5028324;28;20126;-64
2022/08/08 06:52:06;;;;;;;6.40;3.53;;;16.60;68.80;;;;;;5009186;28;20042;-64
2022/08/08 06:54:32;;;;;;;9.63;3.80;;;16.60;68.70;;;;;;5024461;28;20049;-64
2022/08/08 06:56:58;;;;;;;7.30;3.75;;;16.70;68.80;;;;;;5038015;28;20064;-65
2022/08/08 06:59:24;;;;;;;9.18;3.97;;;16.70;68.70;;;;;;5012642;28;20487;-64
2022/08/08 07:02:00;;;;;;;7.85;3.78;;;16.80;68.50;;;;;;4999870;28;20056;-63
2022/08/08 07:04:49;;;;;;;7.47;4.30;;;16.90;68.50;;;;;;5012440;28;20447;-64
2022/08/08 07:07:17;;;;;;;11.68;4.15;;;16.90;68.40;;;;;;5014577;28;20715;-64
2022/08/08 07:10:04;;;;;;;6.43;3.40;;;17.00;68.10;;;;;;5043159;28;20053;-65
2022/08/08 07:12:38;;;;;;;10.20;3.70;;;17.10;67.90;;;;;;5054782;28;20037;-63
2022/08/08 07:15:05;;;;;;;9.18;4.20;;;17.20;67.70;;;;;;5011634;28;20046;-65
2022/08/08 07:17:40;;;;;;;8.57;3.58;;;17.30;67.30;;;;;;5001591;28;20443;-70
2022/08/08 07:20:07;;;;;;;9.10;3.95;;;17.30;67.00;;;;;;5036625;28;20484;-69
2022/08/08 07:22:48;;;;;;;6.57;3.42;;;17.40;66.60;;;;;;5015523;28;20046;-71
2022/08/08 07:25:14;;;;;;;7.18;3.10;;;17.50;66.50;;;;;;5016444;28;20045;-71
2022/08/08 07:27:41;;;;;;;8.93;3.97;;;17.60;66.30;;;;;;5012401;28;20058;-62
2022/08/08 07:30:08;;;;;;;11.82;4.15;;;17.70;65.80;;;;;;5019866;28;20454;-62
2022/08/08 07:32:33;;;;;;;10.32;3.97;;;17.80;65.60;;;;;;5012719;28;20513;-62
2022/08/08 07:35:00;;;;;;;8.15;3.45;;;17.90;65.40;;;;;;4997574;28;20089;-62
2022/08/08 07:37:27;;;;;;;12.82;3.63;;;17.90;65.30;;;;;;5019198;28;20123;-64
2022/08/08 07:39:52;;;;;;;7.38;3.97;;;18.00;65.40;;;;;;5007395;28;20475;-63
2022/08/08 07:42:18;;;;;;;11.18;2.85;;;18.10;65.60;;;;;;5040084;28;20050;-63
2022/08/08 07:44:44;;;;;;;6.63;3.10;;;18.20;64.90;;;;;;4997701;28;20049;-63
2022/08/08 07:47:10;;;;;;;6.20;3.40;;;18.30;64.60;;;;;;5010664;28;20049;-63
2022/08/08 07:49:36;;;;;;;6.95;3.60;;;18.40;64.00;;;;;;5011549;28;20053;-62
2022/08/08 07:52:02;;;;;;;6.03;3.00;;;18.50;63.60;;;;;;5014233;28;20127;-64
2022/08/08 07:54:33;;;;;;;5.35;2.75;;;18.60;63.30;;;;;;4993986;28;20586;-63
2022/08/08 07:57:24;;;;;;;5.50;3.08;;;18.60;62.90;;;;;;5010441;28;20041;-63
2022/08/08 08:00:05;;;;;;;5.30;2.60;;;18.70;62.40;;;;;;5020066;28;20050;-64
2022/08/08 08:02:39;;;;;;;6.00;2.88;;;18.90;62.20;;;;;;5009923;28;20050;-64
2022/08/08 08:05:22;;;;;;;4.93;2.60;;;18.90;62.00;;;;;;5018646;28;20053;-64
2022/08/08 08:07:51;;;;;;;7.45;2.70;;;19.00;62.10;;;;;;5010261;28;20069;-62
2022/08/08 08:10:17;;;;;;;7.38;2.30;;;19.10;62.40;;;;;;5011933;28;20058;-62
2022/08/08 08:12:52;;;;;;;4.50;2.40;;;19.20;62.90;;;;;;5009927;28;20136;-64
2022/08/08 08:15:19;;;;;;;6.63;2.60;;;19.30;61.30;;;;;;5011307;28;20117;-62
2022/08/08 08:17:44;;;;;;;7.43;2.63;;;19.40;60.90;;;;;;5010074;28;20463;-62
2022/08/08 08:20:10;;;;;;;4.25;2.47;;;19.40;60.00;;;;;;4997281;28;20056;-65
2022/08/08 08:22:36;;;;;;;7.03;2.75;;;19.50;60.50;;;;;;5026006;28;20045;-64
2022/08/08 08:25:02;;;;;;;4.97;2.30;;;19.70;59.80;;;;;;4997052;28;20567;-66
2022/08/08 08:27:27;;;;;;;3.60;2.17;;;19.80;57.40;;;;;;5017620;28;20131;-62
2022/08/08 08:29:53;;;;;;;5.97;2.20;;;19.80;56.50;;;;;;5017878;28;20382;-64
2022/08/08 08:32:19;;;;;;;5.25;1.98;;;19.90;56.30;;;;;;5010063;28;20049;-63
2022/08/08 08:34:45;;;;;;;3.60;2.15;;;19.90;57.00;;;;;;4993305;28;20655;-63
2022/08/08 08:37:10;;;;;;;3.35;1.83;;;20.00;55.40;;;;;;5009955;28;20065;-63
2022/08/08 08:39:36;;;;;;;4.40;1.92;;;20.20;54.40;;;;;;5010359;28;20376;-63
2022/08/08 08:42:02;;;;;;;3.33;1.52;;;20.30;54.40;;;;;;5015992;28;20914;-63
2022/08/08 08:44:28;;;;;;;3.60;1.80;;;20.30;55.70;;;;;;5010320;28;20539;-64
2022/08/08 08:46:54;;;;;;;4.35;1.70;;;20.40;53.90;;;;;;5011294;28;20046;-64
2022/08/08 08:49:20;;;;;;;4.50;1.70;;;20.40;52.50;;;;;;5009442;28;20060;-64
2022/08/08 08:51:45;;;;;;;3.38;1.40;;;20.50;51.00;;;;;;5038842;28;20360;-64
2022/08/08 08:54:11;;;;;;;3.00;1.58;;;20.50;51.80;;;;;;5009383;28;20085;-63
2022/08/08 08:56:37;;;;;;;3.75;1.80;;;20.60;52.60;;;;;;5022930;28;20053;-62
2022/08/08 08:59:03;;;;;;;6.00;1.73;;;20.60;51.50;;;;;;5045304;28;20099;-63
2022/08/08 09:01:33;;;;;;;6.38;1.90;;;20.70;51.60;;;;;;5015542;28;20052;-63
2022/08/08 09:04:04;;;;;;;4.40;1.52;;;20.80;52.80;;;;;;5009127;28;20057;-63
2022/08/08 09:06:33;;;;;;;2.90;1.50;;;20.90;52.50;;;;;;5027870;28;20111;-63
2022/08/08 09:09:10;;;;;;;3.40;1.60;;;21.00;51.40;;;;;;5000241;28;20042;-63
2022/08/08 09:11:35;;;;;;;3.78;1.58;;;21.00;51.40;;;;;;4995862;28;20133;-64
2022/08/08 09:14:01;;;;;;;3.03;1.33;;;21.10;52.00;;;;;;4992917;28;20133;-62
2022/08/08 09:16:28;;;;;;;3.97;1.55;;;21.20;51.00;;;;;;5017218;28;20108;-63
2022/08/08 09:18:54;;;;;;;2.80;1.63;;;21.30;51.00;;;;;;5008616;28;20399;-62
2022/08/08 09:21:20;;;;;;;4.18;1.60;;;21.30;51.00;;;;;;4998738;28;20081;-62
2022/08/08 09:23:45;;;;;;;2.83;1.23;;;21.40;51.40;;;;;;5010245;28;20107;-63
2022/08/08 09:26:19;;;;;;;4.93;1.45;;;21.60;50.90;;;;;;5008694;28;20232;-63
2022/08/08 09:28:44;;;;;;;6.20;1.50;;;21.60;49.70;;;;;;5014908;28;20057;-62
2022/08/08 09:31:56;;;;;;;2.85;1.67;;;21.60;47.40;;;;;;5012795;28;20062;-62
2022/08/08 09:34:24;;;;;;;1.60;1.20;;;21.60;50.20;;;;;;5019575;28;20059;-63
2022/08/08 09:36:49;;;;;;;4.82;1.30;;;21.70;49.20;;;;;;5001768;28;20413;-70
2022/08/08 09:39:18;;;;;;;3.35;1.48;;;21.70;50.60;;;;;;5014204;28;20053;-72
2022/08/08 09:41:44;;;;;;;3.15;1.42;;;21.70;49.30;;;;;;5004230;28;20096;-70
2022/08/08 09:44:44;;;;;;;3.03;1.30;;;21.80;50.30;;;;;;5011822;28;20483;-71
2022/08/08 09:47:10;;;;;;;3.90;1.33;;;21.90;49.60;;;;;;5009450;28;20179;-70
2022/08/08 09:49:36;;;;;;;3.20;1.05;;;22.00;49.20;;;;;;5025427;28;20489;-70
2022/08/08 09:52:03;;;;;;;4.53;1.38;;;22.10;47.50;;;;;;5005705;28;20052;-71
2022/08/08 09:54:42;;;;;;;2.70;1.40;;;22.20;48.00;;;;;;5008603;28;20061;-70
2022/08/08 09:57:12;;;;;;;1.67;1.23;;;22.20;48.40;;;;;;4998147;28;20092;-71
2022/08/08 09:59:41;;;;;;;2.83;1.38;;;22.30;47.30;;;;;;5009109;28;20046;-70
2022/08/08 10:02:15;;;;;;;4.07;1.52;;;22.30;47.20;;;;;;5009764;28;20076;-71
2022/08/08 10:04:40;;;;;;;2.72;1.30;;;22.40;47.60;;;;;;5036856;28;20057;-71
2022/08/08 10:07:06;;;;;;;4.15;1.33;;;22.50;46.00;;;;;;5011170;28;20077;-71
2022/08/08 10:09:32;;;;;;;2.38;1.38;;;22.60;44.70;;;;;;5015894;28;20049;-71
2022/08/08 10:12:02;;;;;;;1.92;1.27;;;22.70;44.70;;;;;;5013941;28;20410;-70
2022/08/08 10:14:34;;;;;;;2.90;1.20;;;22.70;44.40;;;;;;4994910;28;20080;-71
2022/08/08 10:17:08;;;;;;;3.72;1.45;;;22.70;45.00;;;;;;4996237;28;20136;-71
2022/08/08 10:19:38;;;;;;;5.75;1.35;;;22.90;46.40;;;;;;5020616;28;20053;-71
2022/08/08 10:22:04;;;;;;;3.33;1.55;;;23.00;45.00;;;;;;5011871;28;20056;-70
2022/08/08 10:24:31;;;;;;;2.03;1.50;;;23.00;45.60;;;;;;4999107;28;20137;-70
2022/08/08 10:27:02;;;;;;;4.05;1.48;;;23.10;46.00;;;;;;5016100;28;20554;-70
2022/08/08 10:30:00;;;;;;;2.43;1.30;;;23.30;45.50;;;;;;5017417;28;20691;-69
2022/08/08 10:32:42;;;;;;;3.65;1.00;;;23.40;43.70;;;;;;5011827;28;20101;-69
2022/08/08 10:35:14;;;;;;;3.17;1.02;;;23.40;42.20;;;;;;5020094;28;20037;-70
2022/08/08 10:37:51;;;;;;;3.33;1.33;;;23.50;43.10;;;;;;5016870;28;20053;-71
2022/08/08 10:40:17;;;;;;;3.03;1.13;;;23.60;43.00;;;;;;5014901;28;20085;-70
2022/08/08 10:42:44;;;;;;;1.73;1.00;;;23.60;41.80;;;;;;5012899;28;20054;-71
2022/08/08 10:45:10;;;;;;;2.15;1.27;;;23.70;41.80;;;;;;5014934;28;20073;-72
2022/08/08 10:47:36;;;;;;;3.15;1.42;;;23.70;42.20;;;;;;4995310;28;20752;-71
2022/08/08 10:50:07;;;;;;;3.22;1.10;;;23.80;41.70;;;;;;5044892;28;20144;-71
2022/08/08 10:52:38;;;;;;;3.88;1.60;;;23.90;41.90;;;;;;5012913;28;20054;-71
2022/08/08 10:55:08;;;;;;;1.75;1.17;;;24.00;42.80;;;;;;4968333;28;20057;-71
2022/08/08 10:57:44;;;;;;;3.75;1.20;;;24.20;41.40;;;;;;5010580;28;20041;-70
2022/08/08 11:00:11;;;;;;;4.25;1.25;;;24.20;41.20;;;;;;5009225;28;20046;-69
2022/08/08 11:02:37;;;;;;;4.90;1.92;;;24.30;41.20;;;;;;5024295;28;20464;-70
2022/08/08 11:05:11;;;;;;;3.92;1.30;;;24.40;41.50;;;;;;5010537;28;20058;-71
2022/08/08 11:07:40;;;;;;;4.80;1.50;;;24.40;40.10;;;;;;4996779;28;20041;-70
2022/08/08 11:10:10;;;;;;;1.73;0.90;;;24.50;41.80;;;;;;4984284;28;20124;-70
2022/08/08 11:12:56;;;;;;;4.50;1.42;;;24.60;41.30;;;;;;5012077;28;20539;-70
2022/08/08 11:15:27;;;;;;;3.17;1.48;;;24.70;41.90;;;;;;5021653;28;20099;-70
2022/08/08 11:17:53;;;;;;;4.55;1.20;;;24.80;40.90;;;;;;5041037;28;20053;-71
2022/08/08 11:20:21;;;;;;;2.55;1.23;;;24.80;40.30;;;;;;5010825;28;20050;-71
2022/08/08 11:22:53;;;;;;;2.25;1.30;;;24.90;39.90;;;;;;5040389;28;20618;-70
2022/08/08 11:25:30;;;;;;;2.28;1.17;;;24.90;39.50;;;;;;5018260;28;20224;-70
2022/08/08 11:27:57;;;;;;;2.95;1.13;;;24.90;39.20;;;;;;4999677;28;20053;-67
2022/08/08 11:30:23;;;;;;;1.97;1.13;;;25.00;39.20;;;;;;5014134;28;20627;-67
2022/08/08 11:32:54;;;;;;;4.85;1.50;;;25.00;38.40;;;;;;5042210;28;20046;-67
2022/08/08 11:35:20;;;;;;;3.60;1.40;;;24.90;38.60;;;;;;5022148;28;20531;-67
2022/08/08 11:37:46;;;;;;;2.72;1.40;;;25.10;38.60;;;;;;5005873;28;20057;-67
2022/08/08 11:40:12;;;;;;;2.90;1.23;;;25.30;38.90;;;;;;5016740;28;20353;-67
2022/08/08 11:42:39;;;;;;;2.90;1.35;;;25.50;38.80;;;;;;5017960;28;20527;-67
2022/08/08 11:45:05;;;;;;;8.98;1.20;;;25.50;39.40;;;;;;4994231;28;20100;-67
2022/08/08 11:47:32;;;;;;;3.35;1.55;;;25.60;39.20;;;;;;4994023;28;20049;-67
2022/08/08 11:49:59;;;;;;;2.70;1.23;;;25.60;37.40;;;;;;4978597;28;20100;-67
2022/08/08 11:52:25;;;;;;;3.72;1.30;;;25.60;38.80;;;;;;4993902;28;20219;-68
2022/08/08 11:54:51;;;;;;;2.17;1.00;;;25.60;37.10;;;;;;5012126;28;20077;-67
2022/08/08 11:57:17;;;;;;;3.28;1.20;;;25.70;37.90;;;;;;5009675;28;20066;-68
2022/08/08 11:59:52;;;;;;;4.70;1.50;;;25.80;38.90;;;;;;5010291;28;20575;-68
2022/08/08 12:02:22;;;;;;;1.80;1.10;;;25.90;37.40;;;;;;5015635;28;20533;-67
2022/08/08 12:04:50;;;;;;;2.47;1.15;;;25.90;37.50;;;;;;5010194;28;20060;-68
2022/08/08 12:07:15;;;;;;;3.67;1.40;;;26.20;37.40;;;;;;5010214;28;20045;-67
2022/08/08 12:09:41;;;;;;;1.92;1.30;;;26.20;37.90;;;;;;5013809;28;20449;-67
2022/08/08 12:12:07;;;;;;;3.10;1.35;;;26.30;37.40;;;;;;5010078;28;20049;-67
2022/08/08 12:14:33;;;;;;;3.10;1.10;;;26.20;36.30;;;;;;5023375;28;20168;-68
2022/08/08 12:16:59;;;;;;;3.20;1.40;;;26.20;35.90;;;;;;5016285;28;20136;-68
2022/08/08 12:19:25;;;;;;;2.55;1.23;;;26.20;37.40;;;;;;5018109;28;20041;-67
2022/08/08 12:21:50;;;;;;;2.97;1.63;;;26.50;38.90;;;;;;5013266;28;20472;-66
2022/08/08 12:24:18;;;;;;;1.95;1.20;;;26.50;37.40;;;;;;5009929;28;20475;-67
2022/08/08 12:26:47;;;;;;;3.25;1.55;;;26.40;37.00;;;;;;5020502;28;20056;-67
2022/08/08 12:29:32;;;;;;;3.92;1.42;;;26.50;37.40;;;;;;5023829;28;20100;-67
2022/08/08 12:32:05;;;;;;;1.95;1.20;;;26.70;38.00;;;;;;5038028;28;20053;-68
2022/08/08 12:34:42;;;;;;;3.00;1.20;;;26.80;35.80;;;;;;5011618;28;20164;-68
2022/08/08 12:37:30;;;;;;;2.60;1.35;;;27.00;37.40;;;;;;4995183;28;20053;-67
2022/08/08 12:40:10;;;;;;;4.63;1.60;;;27.10;36.60;;;;;;5009789;28;20391;-68
2022/08/08 12:42:46;;;;;;;3.28;1.60;;;27.20;37.10;;;;;;5009857;28;20101;-68
2022/08/08 12:45:14;;;;;;;4.35;1.50;;;27.30;36.00;;;;;;5010289;28;20479;-68
2022/08/08 12:47:40;;;;;;;2.53;1.33;;;27.40;36.50;;;;;;5003974;28;20124;-68
2022/08/08 12:50:06;;;;;;;3.28;1.60;;;27.50;36.40;;;;;;5018567;28;20057;-67
2022/08/08 12:52:38;;;;;;;3.17;1.50;;;27.70;37.20;;;;;;5014344;28;20137;-68
2022/08/08 12:55:10;;;;;;;2.13;1.30;;;27.80;36.40;;;;;;5010891;28;20124;-67
2022/08/08 12:57:36;;;;;;;3.08;1.67;;;27.90;35.50;;;;;;5045318;28;20057;-69
2022/08/08 13:00:06;;;;;;;4.90;1.60;;;28.00;35.90;;;;;;5012136;28;20780;-68
2022/08/08 13:02:36;;;;;;;3.95;1.45;;;27.90;34.40;;;;;;4994620;28;20438;-68
2022/08/08 13:05:03;;;;;;;3.80;1.40;;;27.70;34.30;;;;;;4970130;28;20046;-68
2022/08/08 13:07:47;;;;;;;3.13;1.30;;;27.70;34.50;;;;;;5014023;28;20053;-68
2022/08/08 13:10:14;;;;;;;6.30;1.30;;;27.90;35.70;;;;;;5010112;28;20087;-69
2022/08/08 13:12:41;;;;;;;3.65;1.70;;;28.20;36.50;;;;;;5010284;28;20045;-68
2022/08/08 13:15:11;;;;;;;3.08;1.40;;;28.20;34.60;;;;;;4994110;28;20188;-67
2022/08/08 13:17:37;;;;;;;5.03;1.60;;;28.10;34.60;;;;;;5027121;28;20041;-67
2022/08/08 13:20:05;;;;;;;2.88;1.20;;;28.10;34.50;;;;;;5010186;28;20057;-68
2022/08/08 13:22:35;;;;;;;4.68;1.50;;;28.00;33.90;;;;;;5014533;28;20382;-68
2022/08/08 13:25:01;;;;;;;4.53;1.65;;;28.10;35.20;;;;;;5012945;28;20081;-67